createdAt,value
2023-11-23T00:01:20.061Z,9.63
2023-11-23T00:03:21.848Z,9.63
2023-11-23T00:05:23.656Z,9.66
2023-11-23T00:07:25.408Z,9.70
2023-11-23T00:09:28.092Z,9.74
2023-11-23T00:11:30.033Z,9.66
2023-11-23T00:13:31.756Z,9.60
2023-11-23T00:15:33.406Z,9.62
2023-11-23T00:17:37.146Z,9.64
2023-11-23T00:19:38.957Z,9.68
2023-11-23T00:21:40.788Z,9.72
2023-11-23T00:23:42.591Z,9.74
2023-11-23T00:25:45.745Z,9.76
2023-11-23T00:27:47.630Z,9.78
2023-11-23T00:29:49.516Z,9.77
2023-11-23T00:31:51.403Z,9.80
2023-11-23T00:33:53.448Z,9.77
2023-11-23T00:35:55.557Z,9.75
2023-11-23T00:37:57.325Z,9.75
2023-11-23T00:39:59.289Z,9.75
2023-11-23T00:42:01.262Z,9.64
2023-11-23T00:44:03.847Z,9.53
2023-11-23T00:46:05.929Z,9.54
2023-11-23T00:48:07.710Z,9.56
2023-11-23T00:50:09.936Z,9.60
2023-11-23T00:52:11.757Z,9.63
2023-11-23T00:54:13.455Z,9.67
2023-11-23T00:56:16.419Z,9.66
2023-11-23T00:58:18.260Z,9.61
2023-11-23T01:00:20.216Z,9.59
2023-11-23T01:02:22.133Z,9.62
2023-11-23T01:04:23.974Z,9.63
2023-11-23T01:06:25.723Z,9.64
2023-11-23T01:08:27.524Z,9.64
2023-11-23T01:10:29.289Z,9.63
2023-11-23T01:12:31.030Z,9.63
2023-11-23T01:14:32.841Z,9.63
2023-11-23T01:16:34.929Z,9.62
2023-11-23T01:18:36.803Z,9.61
2023-11-23T01:20:38.645Z,9.59
2023-11-23T01:22:40.309Z,9.58
2023-11-23T01:24:42.280Z,9.55
2023-11-23T01:26:44.334Z,9.56
2023-11-23T01:28:46.098Z,9.56
2023-11-23T01:30:48.063Z,9.54
2023-11-23T01:32:49.950Z,9.57
2023-11-23T01:34:51.769Z,9.55
2023-11-23T01:36:53.708Z,9.55
2023-11-23T01:38:55.559Z,9.52
2023-11-23T01:40:57.383Z,9.45
2023-11-23T01:43:11.247Z,9.42
2023-11-23T01:45:13.413Z,9.20
2023-11-23T01:47:15.521Z,8.97
2023-11-23T01:49:18.791Z,9.00
2023-11-23T01:51:20.836Z,9.10
2023-11-23T01:53:22.571Z,9.19
2023-11-23T01:55:24.427Z,9.28
2023-11-23T01:57:34.806Z,9.33
2023-11-23T01:59:37.303Z,9.36
2023-11-23T02:01:39.405Z,9.34
2023-11-23T02:03:41.174Z,9.32
2023-11-23T02:05:43.116Z,9.36
2023-11-23T02:07:46.232Z,9.36
2023-11-23T02:09:47.932Z,9.40
2023-11-23T02:11:49.736Z,9.46
2023-11-23T02:13:51.642Z,9.45
2023-11-23T02:15:53.355Z,9.48
2023-11-23T02:18:02.638Z,9.51
2023-11-23T02:20:10.240Z,9.48
2023-11-23T02:22:12.101Z,9.47
2023-11-23T02:24:13.896Z,9.51
2023-11-23T02:26:15.682Z,9.51
2023-11-23T02:28:17.445Z,9.47
2023-11-23T02:30:22.440Z,9.42
2023-11-23T02:32:26.796Z,9.30
2023-11-23T02:34:28.661Z,9.25
2023-11-23T02:36:30.413Z,9.18
2023-11-23T02:38:32.529Z,9.10
2023-11-23T02:40:34.371Z,9.02
2023-11-23T02:42:36.261Z,8.97
2023-11-23T02:44:38.024Z,8.96
2023-11-23T02:46:39.766Z,8.97
2023-11-23T02:48:41.452Z,8.95
2023-11-23T02:50:43.361Z,8.98
2023-11-23T02:52:45.974Z,9.00
2023-11-23T02:54:47.668Z,8.95
2023-11-23T02:56:49.486Z,8.93
2023-11-23T02:58:51.477Z,8.95
2023-11-23T03:00:53.295Z,8.98
2023-11-23T03:02:56.393Z,8.88
2023-11-23T03:04:58.214Z,8.82
2023-11-23T03:06:59.945Z,8.82
2023-11-23T03:09:01.835Z,8.87
2023-11-23T03:11:05.939Z,8.92
2023-11-23T03:13:07.862Z,8.96
2023-11-23T03:15:10.025Z,9.04
2023-11-23T03:17:11.717Z,9.09
2023-11-23T03:19:14.468Z,9.17
2023-11-23T03:21:16.444Z,8.90
2023-11-23T03:23:18.208Z,8.85
2023-11-23T03:25:19.961Z,8.90
2023-11-23T03:27:21.782Z,8.96
2023-11-23T03:29:23.924Z,9.02
2023-11-23T03:31:25.789Z,9.05
2023-11-23T03:33:27.561Z,8.99
2023-11-23T03:35:29.325Z,9.00
2023-11-23T03:37:31.315Z,9.07
2023-11-23T03:39:33.007Z,9.10
2023-11-23T03:41:35.594Z,8.85
2023-11-23T03:43:37.486Z,8.82
2023-11-23T03:45:39.201Z,8.80
2023-11-23T03:47:41.292Z,8.80
2023-11-23T03:49:43.023Z,8.87
2023-11-23T03:51:45.300Z,8.85
2023-11-23T03:53:47.328Z,8.80
2023-11-23T03:55:49.236Z,8.65
2023-11-23T03:57:51.177Z,8.54
2023-11-23T03:59:52.890Z,8.44
2023-11-23T04:01:55.104Z,8.50
2023-11-23T04:03:56.863Z,8.61
2023-11-23T04:05:59.779Z,8.73
2023-11-23T04:08:01.635Z,8.82
2023-11-23T04:10:04.986Z,8.77
2023-11-23T04:12:08.149Z,8.74
2023-11-23T04:14:09.953Z,8.63
2023-11-23T04:16:11.670Z,8.59
2023-11-23T04:18:13.726Z,8.50
2023-11-23T04:20:15.658Z,8.30
2023-11-23T04:22:17.741Z,8.17
2023-11-23T04:24:19.908Z,8.21
2023-11-23T04:26:21.754Z,7.87
2023-11-23T04:28:23.413Z,7.66
2023-11-23T04:30:25.175Z,7.70
2023-11-23T04:32:26.996Z,7.89
2023-11-23T04:34:28.996Z,8.07
2023-11-23T04:36:30.995Z,8.28
2023-11-23T04:38:32.715Z,8.43
2023-11-23T04:40:34.512Z,8.56
2023-11-23T04:42:36.626Z,8.36
2023-11-23T04:44:38.403Z,8.30
2023-11-23T04:46:40.329Z,8.10
2023-11-23T04:48:42.113Z,8.12
2023-11-23T04:50:43.987Z,8.06
2023-11-23T04:52:45.670Z,7.94
2023-11-23T04:54:47.435Z,7.98
2023-11-23T04:56:51.781Z,8.06
2023-11-23T04:58:53.502Z,7.99
2023-11-23T05:00:55.387Z,8.14
2023-11-23T05:02:57.230Z,8.23
2023-11-23T05:04:58.948Z,8.31
2023-11-23T05:07:01.643Z,8.38
2023-11-23T05:09:04.214Z,8.44
2023-11-23T05:11:06.032Z,8.50
2023-11-23T05:13:08.003Z,8.54
2023-11-23T05:15:09.866Z,8.55
2023-11-23T05:17:11.677Z,8.54
2023-11-23T05:19:16.003Z,8.57
2023-11-23T05:21:21.380Z,8.58
2023-11-23T05:23:23.187Z,8.56
2023-11-23T05:25:24.888Z,8.57
2023-11-23T05:27:26.668Z,8.57
2023-11-23T05:29:28.588Z,8.57
2023-11-23T05:31:30.342Z,8.60
2023-11-23T05:33:32.101Z,8.57
2023-11-23T05:35:33.956Z,8.44
2023-11-23T05:37:35.770Z,8.24
2023-11-23T05:39:43.091Z,8.18
2023-11-23T05:41:45.872Z,8.15
2023-11-23T05:43:48.346Z,7.95
2023-11-23T05:45:52.692Z,7.88
2023-11-23T05:47:55.748Z,7.84
2023-11-23T05:50:02.609Z,7.92
2023-11-23T05:52:05.339Z,7.97
2023-11-23T05:54:07.129Z,7.94
2023-11-23T05:56:09.117Z,8.02
2023-11-23T05:58:11.076Z,8.10
2023-11-23T06:00:13.510Z,8.11
2023-11-23T06:02:15.366Z,8.09
2023-11-23T06:04:17.683Z,8.00
2023-11-23T06:06:24.144Z,7.99
2023-11-23T06:08:28.724Z,7.97
2023-11-23T06:10:30.555Z,7.93
2023-11-23T06:12:32.740Z,7.79
2023-11-23T06:14:34.602Z,7.71
2023-11-23T06:16:36.481Z,7.79
2023-11-23T06:18:40.175Z,7.90
2023-11-23T06:20:42.193Z,7.94
2023-11-23T06:22:44.046Z,7.98
2023-11-23T06:24:45.738Z,7.95
2023-11-23T06:26:47.499Z,7.99
2023-11-23T06:28:49.757Z,7.97
2023-11-23T06:30:52.424Z,7.98
2023-11-23T06:32:54.328Z,8.09
2023-11-23T06:34:56.216Z,8.12
2023-11-23T06:36:57.954Z,8.18
2023-11-23T06:38:59.683Z,8.21
2023-11-23T06:41:01.378Z,8.31
2023-11-23T06:43:03.687Z,8.38
2023-11-23T06:45:06.219Z,8.51
2023-11-23T06:47:08.337Z,8.47
2023-11-23T06:49:10.277Z,8.39
2023-11-23T06:51:12.461Z,8.45
2023-11-23T06:53:14.760Z,8.45
2023-11-23T06:55:16.629Z,8.42
2023-11-23T06:57:18.934Z,8.45
2023-11-23T06:59:20.686Z,8.42
2023-11-23T07:01:23.069Z,8.31
2023-11-23T07:03:24.896Z,8.28
2023-11-23T07:05:27.777Z,8.11
2023-11-23T07:07:29.575Z,8.06
2023-11-23T07:09:31.415Z,7.98
2023-11-23T07:11:33.210Z,7.97
2023-11-23T07:13:35.577Z,8.04
2023-11-23T07:15:37.668Z,8.12
2023-11-23T07:17:42.996Z,8.21
2023-11-23T07:19:45.671Z,8.15
2023-11-23T07:21:49.282Z,8.15
2023-11-23T07:23:51.137Z,8.10
2023-11-23T07:25:54.438Z,7.92
2023-11-23T07:27:56.282Z,7.87
2023-11-23T07:29:58.043Z,7.85
2023-11-23T07:32:00.545Z,8.00
2023-11-23T07:34:04.318Z,8.12
2023-11-23T07:36:06.907Z,7.99
2023-11-23T07:38:08.786Z,8.12
2023-11-23T07:40:15.250Z,8.17
2023-11-23T07:42:18.964Z,8.22
2023-11-23T07:44:22.048Z,8.25
2023-11-23T07:46:25.623Z,8.23
2023-11-23T07:48:27.649Z,8.32
2023-11-23T07:50:30.285Z,8.42
2023-11-23T07:52:32.650Z,8.55
2023-11-23T07:54:34.541Z,8.68
2023-11-23T07:56:36.283Z,8.80
2023-11-23T07:58:38.019Z,8.87
2023-11-23T08:00:41.495Z,8.82
2023-11-23T08:02:43.275Z,8.88
2023-11-23T08:04:45.688Z,8.91
2023-11-23T08:06:48.395Z,8.90
2023-11-23T08:08:50.703Z,8.98
2023-11-23T08:10:52.598Z,9.04
2023-11-23T08:12:55.287Z,9.05
2023-11-23T08:14:58.242Z,8.97
2023-11-23T08:17:00.012Z,8.84
2023-11-23T08:19:02.305Z,8.88
2023-11-23T08:21:04.491Z,8.89
2023-11-23T08:23:06.565Z,8.95
2023-11-23T08:25:08.979Z,8.99
2023-11-23T08:27:10.956Z,9.01
2023-11-23T08:29:13.055Z,9.07
2023-11-23T08:31:14.869Z,9.13
2023-11-23T08:33:17.059Z,9.20
2023-11-23T08:35:18.911Z,9.25
2023-11-23T08:37:20.591Z,9.31
2023-11-23T08:39:41.470Z,9.37
2023-11-23T08:41:43.363Z,9.40
2023-11-23T08:43:48.747Z,9.45
2023-11-23T08:45:50.545Z,9.47
2023-11-23T08:47:53.688Z,9.48
2023-11-23T08:49:56.438Z,9.50
2023-11-23T08:51:59.144Z,9.54
2023-11-23T08:54:03.473Z,9.56
2023-11-23T08:56:05.356Z,9.54
2023-11-23T08:58:07.049Z,9.54
2023-11-23T09:00:12.701Z,9.58
2023-11-23T09:02:20.318Z,9.61
2023-11-23T09:04:28.531Z,9.61
2023-11-23T09:06:34.980Z,9.64
2023-11-23T09:08:36.807Z,9.63
2023-11-23T09:10:38.488Z,9.66
2023-11-23T09:12:40.405Z,9.68
2023-11-23T09:14:48.574Z,9.73
2023-11-23T09:16:51.549Z,9.74
2023-11-23T09:18:54.822Z,9.77
2023-11-23T09:20:58.706Z,9.81
2023-11-23T09:23:03.795Z,9.84
2023-11-23T09:25:07.658Z,9.83
2023-11-23T09:27:11.116Z,9.85
2023-11-23T09:29:13.221Z,9.78
2023-11-23T09:31:19.548Z,9.65
2023-11-23T09:33:24.636Z,9.62
2023-11-23T09:35:27.955Z,9.65
2023-11-23T09:37:29.741Z,9.69
2023-11-23T09:39:32.758Z,9.70
2023-11-23T09:41:39.589Z,9.70
2023-11-23T09:43:42.852Z,9.75
2023-11-23T09:45:45.893Z,9.79
2023-11-23T09:47:50.885Z,9.81
2023-11-23T09:49:53.014Z,9.80
2023-11-23T09:51:57.152Z,9.84
2023-11-23T09:54:01.027Z,9.86
2023-11-23T09:56:03.194Z,9.87
2023-11-23T09:58:07.144Z,9.85
2023-11-23T10:00:15.678Z,9.87
2023-11-23T10:02:20.823Z,9.90
2023-11-23T10:04:22.842Z,9.87
2023-11-23T10:06:24.708Z,9.84
2023-11-23T10:08:28.560Z,9.83
2023-11-23T10:10:30.574Z,9.82
2023-11-23T10:12:34.227Z,9.87
2023-11-23T10:14:36.047Z,9.90
2023-11-23T10:16:38.281Z,9.95
2023-11-23T10:18:43.482Z,9.97
2023-11-23T10:20:50.415Z,9.95
2023-11-23T10:22:52.326Z,9.95
2023-11-23T10:24:54.073Z,9.98
2023-11-23T10:26:56.411Z,10.00
2023-11-23T10:28:59.958Z,10.03
2023-11-23T10:31:05.546Z,10.04
2023-11-23T10:33:10.772Z,10.06
2023-11-23T10:35:15.220Z,10.09
2023-11-23T10:37:17.852Z,10.09
2023-11-23T10:39:22.733Z,10.10
2023-11-23T10:41:24.505Z,10.12
2023-11-23T10:43:27.567Z,10.12
2023-11-23T10:45:32.650Z,10.11
2023-11-23T10:47:36.301Z,10.10
2023-11-23T10:49:40.302Z,10.07
2023-11-23T10:51:43.835Z,10.10
2023-11-23T10:53:45.658Z,10.11
2023-11-23T10:55:50.881Z,10.11
2023-11-23T10:57:59.726Z,10.10
2023-11-23T11:00:02.577Z,10.10
2023-11-23T11:02:04.781Z,10.13
2023-11-23T11:04:06.748Z,10.14
2023-11-23T11:06:12.724Z,10.13
2023-11-23T11:08:22.094Z,10.18
2023-11-23T11:10:23.913Z,10.22
2023-11-23T11:12:25.777Z,10.23
2023-11-23T11:14:37.619Z,10.26
2023-11-23T11:16:40.654Z,10.29
2023-11-23T11:18:52.285Z,10.30
2023-11-23T11:21:09.956Z,10.31
2023-11-23T11:23:11.949Z,10.33
2023-11-23T11:25:15.007Z,10.33
2023-11-23T11:27:20.323Z,10.34
2023-11-23T11:29:22.535Z,10.38
2023-11-23T11:31:50.606Z,10.32
2023-11-23T11:33:55.800Z,10.33
2023-11-23T11:35:58.381Z,10.31
2023-11-23T11:38:01.263Z,10.32
2023-11-23T11:40:04.791Z,10.35
2023-11-23T11:42:11.413Z,10.36
2023-11-23T11:44:14.418Z,10.34
2023-11-23T11:46:16.766Z,10.33
2023-11-23T11:48:19.898Z,10.35
2023-11-23T11:50:21.771Z,10.32
2023-11-23T11:52:23.576Z,10.35
2023-11-23T11:54:29.359Z,10.33
2023-11-23T11:56:31.062Z,10.36
2023-11-23T11:58:33.375Z,10.39
2023-11-23T12:00:36.787Z,10.40
2023-11-23T12:02:39.758Z,10.40
2023-11-23T12:04:43.169Z,10.42
2023-11-23T12:06:51.920Z,10.36
2023-11-23T12:08:53.632Z,10.35
2023-11-23T12:10:55.382Z,10.39
2023-11-23T12:12:57.253Z,10.36
2023-11-23T12:15:00.088Z,10.35
2023-11-23T12:17:11.918Z,10.37
2023-11-23T12:19:22.759Z,10.37
2023-11-23T12:21:24.566Z,10.23
2023-11-23T12:23:30.314Z,10.11
2023-11-23T12:25:34.153Z,10.07
2023-11-23T12:27:35.886Z,10.11
2023-11-23T12:29:39.966Z,9.78
2023-11-23T12:31:41.657Z,9.54
2023-11-23T12:33:44.373Z,9.54
2023-11-23T12:35:46.423Z,9.63
2023-11-23T12:37:48.326Z,9.72
2023-11-23T12:39:51.036Z,9.79
2023-11-23T12:41:55.249Z,9.88
2023-11-23T12:43:57.373Z,9.83
2023-11-23T12:45:59.411Z,9.81
2023-11-23T12:48:01.337Z,9.69
2023-11-23T12:50:11.284Z,9.45
2023-11-23T12:52:13.077Z,8.95
2023-11-23T12:54:16.254Z,8.63
2023-11-23T12:56:18.096Z,8.75
2023-11-23T12:58:20.632Z,8.83
2023-11-23T13:00:26.028Z,8.86
2023-11-23T13:02:27.946Z,8.79
2023-11-23T13:04:31.236Z,8.52
2023-11-23T13:06:33.260Z,8.49
2023-11-23T13:08:35.645Z,8.47
2023-11-23T13:10:39.017Z,8.39
2023-11-23T13:12:40.874Z,8.58
2023-11-23T13:14:42.841Z,8.66
2023-11-23T13:16:46.050Z,8.61
2023-11-23T13:19:05.456Z,8.46
2023-11-23T13:21:10.748Z,8.34
2023-11-23T13:23:12.748Z,8.49
2023-11-23T13:25:16.374Z,8.64
2023-11-23T13:27:18.094Z,8.46
2023-11-23T13:29:20.152Z,8.39
2023-11-23T13:31:23.528Z,8.54
2023-11-23T13:33:25.802Z,8.63
2023-11-23T13:35:28.782Z,8.75
2023-11-23T13:37:30.602Z,8.89
2023-11-23T13:39:33.122Z,9.01
2023-11-23T13:41:34.882Z,9.11
2023-11-23T13:43:39.701Z,9.09
2023-11-23T13:45:43.031Z,9.18
2023-11-23T13:47:45.357Z,9.14
2023-11-23T13:49:47.106Z,9.23
2023-11-23T13:51:48.955Z,9.27
2023-11-23T13:53:50.823Z,9.20
2023-11-23T13:55:52.675Z,9.19
2023-11-23T13:57:54.445Z,9.23
2023-11-23T13:59:58.831Z,9.26
2023-11-23T14:02:02.137Z,9.34
2023-11-23T14:04:04.736Z,9.44
2023-11-23T14:06:07.618Z,9.51
2023-11-23T14:08:09.504Z,9.53
2023-11-23T14:10:14.063Z,9.56
2023-11-23T14:12:15.835Z,9.61
2023-11-23T14:14:17.770Z,9.68
2023-11-23T14:16:21.428Z,9.67
2023-11-23T14:18:23.328Z,9.70
2023-11-23T14:20:25.279Z,9.72
2023-11-23T14:22:27.417Z,9.77
2023-11-23T14:24:31.318Z,9.81
2023-11-23T14:26:33.682Z,9.88
2023-11-23T14:28:36.021Z,9.87
2023-11-23T14:30:37.774Z,9.89
2023-11-23T14:32:41.567Z,9.91
2023-11-23T14:34:45.713Z,9.94
2023-11-23T14:36:50.203Z,9.89
2023-11-23T14:38:54.256Z,9.93
2023-11-23T14:40:59.064Z,9.95
2023-11-23T14:43:04.008Z,9.96
2023-11-23T14:45:06.713Z,9.98
2023-11-23T14:47:09.810Z,9.99
2023-11-23T14:49:11.765Z,9.99
2023-11-23T14:51:13.631Z,9.89
2023-11-23T14:53:15.907Z,9.67
2023-11-23T14:55:18.119Z,9.49
2023-11-23T14:57:19.969Z,9.40
2023-11-23T14:59:25.729Z,9.30
2023-11-23T15:01:29.135Z,9.30
2023-11-23T15:03:31.569Z,9.30
2023-11-23T15:05:33.799Z,9.17
2023-11-23T15:07:35.584Z,9.09
2023-11-23T15:09:37.505Z,9.05
2023-11-23T15:11:39.439Z,9.10
2023-11-23T15:13:42.494Z,9.19
2023-11-23T15:15:44.557Z,9.17
2023-11-23T15:17:54.446Z,9.17
2023-11-23T15:19:57.917Z,9.27
2023-11-23T15:22:03.593Z,9.34
2023-11-23T15:24:05.524Z,9.46
2023-11-23T15:26:10.747Z,9.35
2023-11-23T15:28:12.923Z,9.16
2023-11-23T15:30:15.896Z,8.88
2023-11-23T15:32:18.566Z,8.92
2023-11-23T15:34:21.976Z,8.70
2023-11-23T15:36:23.640Z,8.48
2023-11-23T15:38:25.698Z,8.46
2023-11-23T15:40:27.481Z,8.47
2023-11-23T15:42:31.885Z,8.39
2023-11-23T15:44:33.731Z,8.51
2023-11-23T15:46:35.524Z,8.59
2023-11-23T15:48:37.435Z,8.64
2023-11-23T15:50:41.825Z,8.56
2023-11-23T15:52:43.714Z,8.49
2023-11-23T15:54:46.940Z,8.40
2023-11-23T15:56:48.668Z,8.27
2023-11-23T15:58:51.568Z,8.30
2023-11-23T16:00:53.972Z,8.27
2023-11-23T16:02:57.628Z,8.15
2023-11-23T16:05:00.732Z,8.19
2023-11-23T16:07:03.995Z,8.24
2023-11-23T16:09:12.063Z,8.14
2023-11-23T16:11:15.418Z,8.21
2023-11-23T16:13:21.216Z,8.28
2023-11-23T16:15:23.175Z,8.43
2023-11-23T16:17:26.696Z,8.59
2023-11-23T16:19:29.906Z,8.50
2023-11-23T16:21:31.852Z,8.53
2023-11-23T16:23:33.643Z,8.58
2023-11-23T16:25:35.557Z,8.52
2023-11-23T16:27:37.726Z,8.60
2023-11-23T16:29:39.575Z,8.62
2023-11-23T16:31:43.464Z,8.54
2023-11-23T16:33:45.666Z,8.29
2023-11-23T16:35:49.163Z,8.34
2023-11-23T16:37:51.958Z,8.44
2023-11-23T16:39:54.149Z,8.58
2023-11-23T16:41:55.938Z,8.76
2023-11-23T16:43:57.604Z,8.91
2023-11-23T16:45:59.441Z,9.03
2023-11-23T16:48:01.294Z,9.12
2023-11-23T16:50:03.237Z,9.04
2023-11-23T16:52:05.349Z,9.02
2023-11-23T16:54:07.533Z,8.72
2023-11-23T16:56:09.574Z,8.53
2023-11-23T16:58:11.344Z,8.52
2023-11-23T17:00:15.795Z,8.23
2023-11-23T17:02:18.099Z,8.13
2023-11-23T17:04:20.707Z,8.13
2023-11-23T17:06:23.661Z,8.19
2023-11-23T17:08:25.433Z,8.14
2023-11-23T17:10:28.731Z,8.18
2023-11-23T17:12:31.484Z,8.25
2023-11-23T17:14:33.346Z,8.18
2023-11-23T17:16:35.910Z,8.17
2023-11-23T17:18:37.669Z,8.24
2023-11-23T17:20:40.874Z,8.23
2023-11-23T17:22:44.088Z,8.20
2023-11-23T17:24:46.033Z,8.26
2023-11-23T17:26:47.810Z,8.20
2023-11-23T17:28:49.461Z,8.08
2023-11-23T17:30:56.126Z,7.91
2023-11-23T17:32:57.958Z,7.87
2023-11-23T17:35:00.406Z,7.88
2023-11-23T17:37:02.249Z,8.05
2023-11-23T17:39:07.104Z,8.23
2023-11-23T17:41:11.495Z,8.42
2023-11-23T17:43:13.471Z,8.62
2023-11-23T17:45:15.345Z,8.77
2023-11-23T17:47:17.266Z,8.89
2023-11-23T17:49:18.944Z,8.91
2023-11-23T17:51:20.679Z,8.88
2023-11-23T17:53:23.757Z,8.89
2023-11-23T17:55:26.535Z,8.86
2023-11-23T17:57:28.679Z,8.93
2023-11-23T17:59:43.360Z,9.00
2023-11-23T18:01:50.419Z,9.12
2023-11-23T18:03:52.992Z,9.17
2023-11-23T18:05:54.853Z,9.22
2023-11-23T18:07:56.569Z,9.27
2023-11-23T18:09:59.359Z,9.29
2023-11-23T18:12:01.922Z,9.18
2023-11-23T18:14:03.737Z,9.07
2023-11-23T18:16:06.081Z,8.87
2023-11-23T18:18:15.285Z,8.76
2023-11-23T18:20:25.116Z,8.82
2023-11-23T18:22:26.989Z,8.91
2023-11-23T18:24:29.799Z,9.01
2023-11-23T18:26:31.454Z,9.07
2023-11-23T18:28:33.225Z,9.12
2023-11-23T18:30:36.314Z,8.84
2023-11-23T18:32:38.144Z,8.75
2023-11-23T18:34:39.896Z,8.75
2023-11-23T18:36:42.365Z,8.70
2023-11-23T18:38:45.808Z,8.78
2023-11-23T18:40:48.568Z,8.82
2023-11-23T18:42:54.748Z,8.87
2023-11-23T18:44:56.591Z,8.91
2023-11-23T18:46:58.433Z,8.97
2023-11-23T18:49:00.419Z,9.02
2023-11-23T18:51:02.232Z,9.10
2023-11-23T18:53:04.125Z,9.06
2023-11-23T18:55:06.783Z,8.66
2023-11-23T18:57:08.547Z,8.68
2023-11-23T18:59:10.314Z,8.73
2023-11-23T19:01:12.249Z,8.81
2023-11-23T19:03:14.097Z,8.88
2023-11-23T19:05:16.690Z,8.95
2023-11-23T19:07:18.511Z,9.01
2023-11-23T19:09:20.234Z,9.02
2023-11-23T19:11:21.998Z,9.03
2023-11-23T19:13:27.687Z,9.07
2023-11-23T19:15:29.881Z,8.96
2023-11-23T19:17:31.839Z,8.84
2023-11-23T19:19:34.071Z,8.81
2023-11-23T19:21:36.762Z,8.81
2023-11-23T19:23:38.911Z,8.74
2023-11-23T19:25:41.044Z,8.65
2023-11-23T19:27:43.179Z,8.72
2023-11-23T19:29:48.199Z,8.80
2023-11-23T19:31:52.052Z,8.89
2023-11-23T19:33:53.995Z,9.02
2023-11-23T19:35:56.061Z,9.01
2023-11-23T19:37:57.976Z,8.65
2023-11-23T19:40:00.334Z,8.57
2023-11-23T19:42:03.061Z,8.60
2023-11-23T19:44:05.227Z,8.63
2023-11-23T19:46:08.163Z,8.50
2023-11-23T19:48:10.876Z,8.44
2023-11-23T19:50:13.430Z,8.53
2023-11-23T19:52:24.099Z,8.69
2023-11-23T19:54:25.948Z,8.83
2023-11-23T19:56:28.496Z,8.93
2023-11-23T19:58:31.109Z,8.99
2023-11-23T20:00:32.953Z,9.08
2023-11-23T20:02:35.701Z,9.13
2023-11-23T20:04:37.723Z,9.15
2023-11-23T20:06:39.493Z,9.16
2023-11-23T20:08:43.081Z,9.18
2023-11-23T20:10:46.005Z,9.21
2023-11-23T20:12:48.875Z,9.26
2023-11-23T20:14:51.477Z,9.31
2023-11-23T20:16:57.118Z,9.38
2023-11-23T20:19:00.304Z,9.31
2023-11-23T20:21:02.075Z,9.29
2023-11-23T20:23:03.872Z,9.28
2023-11-23T20:25:06.049Z,9.33
2023-11-23T20:27:07.749Z,9.40
2023-11-23T20:29:09.575Z,9.37
2023-11-23T20:31:11.578Z,9.36
2023-11-23T20:33:16.835Z,9.36
2023-11-23T20:35:22.317Z,9.22
2023-11-23T20:37:24.044Z,9.19
2023-11-23T20:39:27.295Z,9.20
2023-11-23T20:41:29.234Z,9.28
2023-11-23T20:43:31.137Z,9.23
2023-11-23T20:45:34.120Z,9.14
2023-11-23T20:47:36.485Z,9.11
2023-11-23T20:49:38.332Z,9.09
2023-11-23T20:51:40.138Z,9.15
2023-11-23T20:53:42.081Z,9.18
2023-11-23T20:55:44.455Z,9.23
2023-11-23T20:57:47.352Z,9.26
2023-11-23T20:59:49.490Z,9.18
2023-11-23T21:01:53.207Z,9.08
2023-11-23T21:03:55.211Z,9.06
2023-11-23T21:06:02.163Z,9.09
2023-11-23T21:08:04.331Z,9.11
2023-11-23T21:10:08.771Z,9.18
2023-11-23T21:12:17.472Z,9.25
2023-11-23T21:14:26.417Z,9.27
2023-11-23T21:16:30.724Z,9.26
2023-11-23T21:18:33.724Z,9.25
2023-11-23T21:20:37.508Z,9.26
2023-11-23T21:22:39.271Z,9.25
2023-11-23T21:24:41.289Z,9.26
2023-11-23T21:26:43.021Z,9.29
2023-11-23T21:28:44.909Z,9.32
2023-11-23T21:30:48.163Z,9.40
2023-11-23T21:32:50.091Z,9.37
2023-11-23T21:34:51.977Z,9.37
2023-11-23T21:36:53.920Z,9.33
2023-11-23T21:38:55.563Z,9.12
2023-11-23T21:40:57.220Z,8.99
2023-11-23T21:42:59.475Z,8.69
2023-11-23T21:45:01.126Z,8.58
2023-11-23T21:47:02.889Z,8.47
2023-11-23T21:49:04.817Z,8.50
2023-11-23T21:51:06.686Z,8.57
2023-11-23T21:53:08.373Z,8.69
2023-11-23T21:55:10.204Z,8.78
2023-11-23T21:57:11.967Z,8.88
2023-11-23T21:59:15.172Z,8.96
2023-11-23T22:01:16.952Z,8.99
2023-11-23T22:03:18.861Z,9.04
2023-11-23T22:05:20.734Z,9.01
2023-11-23T22:07:26.953Z,9.04
2023-11-23T22:09:29.379Z,9.08
2023-11-23T22:11:31.136Z,9.04
2023-11-23T22:13:32.990Z,9.00
2023-11-23T22:15:35.497Z,8.98
2023-11-23T22:17:37.561Z,8.99
2023-11-23T22:19:39.734Z,9.08
2023-11-23T22:21:41.836Z,9.11
2023-11-23T22:23:43.677Z,9.12
2023-11-23T22:25:45.742Z,9.13
2023-11-23T22:27:48.078Z,9.18
2023-11-23T22:29:50.291Z,9.20
2023-11-23T22:31:52.633Z,9.25
2023-11-23T22:33:55.642Z,9.23
2023-11-23T22:35:57.582Z,9.25
2023-11-23T22:37:59.713Z,9.12
2023-11-23T22:40:01.732Z,9.08
2023-11-23T22:42:03.907Z,9.01
2023-11-23T22:44:09.765Z,9.03
2023-11-23T22:46:13.675Z,9.09
2023-11-23T22:48:15.495Z,9.11
2023-11-23T22:50:17.401Z,8.92
2023-11-23T22:52:20.417Z,8.64
2023-11-23T22:54:22.332Z,8.60
2023-11-23T22:56:24.118Z,8.67
2023-11-23T22:58:27.139Z,8.74
2023-11-23T23:00:37.288Z,8.79
2023-11-23T23:02:39.477Z,8.82
2023-11-23T23:04:41.354Z,8.85
2023-11-23T23:06:43.609Z,8.92
2023-11-23T23:08:47.337Z,8.94
2023-11-23T23:10:50.675Z,8.93
2023-11-23T23:12:54.025Z,8.95
2023-11-23T23:14:55.902Z,9.00
2023-11-23T23:16:57.849Z,8.84
2023-11-23T23:19:00.316Z,8.72
2023-11-23T23:21:02.152Z,8.58
2023-11-23T23:23:04.000Z,8.63
2023-11-23T23:25:06.247Z,8.70
2023-11-23T23:27:09.402Z,8.75
2023-11-23T23:29:11.355Z,8.78
2023-11-23T23:31:15.500Z,8.76
2023-11-23T23:33:17.253Z,8.69
2023-11-23T23:35:19.665Z,8.57
2023-11-23T23:37:22.265Z,8.60
2023-11-23T23:39:24.629Z,8.62
2023-11-23T23:41:26.579Z,8.60
2023-11-23T23:43:28.374Z,8.63
2023-11-23T23:45:30.155Z,8.66
2023-11-23T23:47:32.126Z,8.71
2023-11-23T23:49:34.427Z,8.78
2023-11-23T23:51:36.167Z,8.81
2023-11-23T23:53:39.141Z,8.85
2023-11-23T23:55:42.730Z,8.84
2023-11-23T23:57:44.858Z,8.80
2023-11-23T23:59:49.700Z,8.86
